Chili, WI

12:22 PM CDT on July 25, 2014 (GMT -0500)
Central Wisconsin (KCWA) Elev 1276 ft | 44.78 °N, 89.67 °W | Change Station

Current weather conditions updated 1 hour ago

Light Rain
Light Rain
63 °F
Feels Like 63 °F
N
9
Wind Variable Wind from SSW

Today is forecast to be Cooler than yesterday.

Today
High -- | Low -- °F
--% Chance of Precip.
Yesterday
High -- | Low -- °F
Precip. -- in
5:40 AM 8:34 PM
Waning Crescent, 1% visible
Pressure 29.93 in
Visibility 10.0 miles
Clouds Scattered Clouds 1900 ft
Mostly Cloudy 2800 ft
Overcast 4800 ft
Dew Point 59 °F
Humidity 88%
Rainfall 0.00 in
Snow Depth Not available.
UV 2 out of 12
Pollen 6.10 out of 12
Air Quality Not available.
Flu Activity Not available.
METAR KCWA 251545Z 20008KT 10SM -RA SCT019 BKN028 OVC048 17/15 A2993

More Conditions Fewer Conditions

Pressure 29.93 in
Visibility 10.0 miles
Clouds Scattered Clouds 1900 ft
Mostly Cloudy 2800 ft
Overcast 4800 ft
Dew Point 59 °F
Humidity 88%
Rainfall 0.00 in
Snow Depth Not available.
UV 2 out of 12
Pollen 6.10 out of 12
Air Quality Not available.
Flu Activity Not available.
METAR KCWA 251545Z 20008KT 10SM -RA SCT019 BKN028 OVC048 17/15 A2993

More Conditions Fewer Conditions

10-Day Weather Forecast

Almanac

Astronomy

Jul. 25, 2014 Rise Set
Actual Time 5:40 AM CDT 8:34 PM CDT
Civil Twilight 5:05 AM CDT 9:08 PM CDT
Nautical Twilight 4:22 AM CDT 9:52 PM CDT
Astronomical Twilight 3:30 AM CDT 10:43 PM CDT
Moon 4:41 AM CDT 7:29 PM CDT
Length of Visible Light 16h 02m
Length of Day
14h 54m
Tomorrow will be 2m 7s shorter.
Waning Crescent, 1% of the Moon is Illuminated
Today
Waning Crescent
Jul 26
New
Aug 3
First Quarter
Aug 10
Full
Aug 17
Last Quarter

Today's Extremes

State Highs State Lows

Community

WunderPhotos

Upload Photos

1,737,365 photos uploaded!

Nearby

Snow Depth

Station Depth Elevation
No new snow has been reported.

Earthquake Activity

City Distance Mag. Time & Date
No recent earthquake activity has been reported nearby.
Minimum magnitude displayed is 2.5.

Coastal Water Temperatures

Place Temperature
No Stations Reporting

Nearby Weather Stations

Station Location Temp. Dew Point Humidity Wind Precip. Elev Updated Type
WIDOT Pittsville - STH 13 @ STH 80, Pittsville, WI 64 °F 62 °F 94% SSE  at  9 mph 0.00 in / hr 1040 ft 11:21 AM CDT MADIS

Show More Stations Show Fewer Stations